Time;durP1;ratioP1;P1;durP2;ratioP2;P2;SDS_P1;SDS_P2;PMS_P1;PMS_P2;Temp;Humidity;BMP_temperature;BMP_pressure;BME280_temperature;BME280_humidity;BME280_pressure;Samples;Min_cycle;Max_cycle;Signal;HPM_P1;HPM_P2
2021/11/14 00:02:43;;;;;;;55.90;30.20;;;;;;;2.18;84.37;99749.78;434002;1312;142409;-61
2021/11/14 00:13:09;;;;;;;54.70;30.20;;;;;;;2.17;84.31;99752.05;432253;1312;142008;-61
2021/11/14 00:23:15;;;;;;;56.70;31.00;;;;;;;2.17;84.39;99758.44;432688;1313;230171;-62
2021/11/14 00:33:21;;;;;;;50.10;30.40;;;;;;;2.14;84.25;99769.92;420090;1312;142318;-61
2021/11/14 00:43:28;;;;;;;52.10;27.70;;;;;;;2.10;84.48;99778.30;431073;1312;142082;-61
2021/11/14 00:53:34;;;;;;;56.50;30.10;;;;;;;2.11;84.41;99785.88;424733;1312;141373;-60
2021/11/14 01:03:39;;;;;;;55.80;29.40;;;;;;;2.07;84.47;99786.85;433211;1313;142310;-61
2021/11/14 01:13:45;;;;;;;65.40;34.40;;;;;;;2.07;84.49;99785.48;434614;1313;142385;-61
2021/11/14 01:23:55;;;;;;;63.70;33.20;;;;;;;2.11;84.35;99789.67;433958;1310;142004;-61
2021/11/14 01:34:00;;;;;;;59.30;31.40;;;;;;;2.13;84.54;99788.59;434795;1313;141572;-61
2021/11/14 01:44:09;;;;;;;51.80;28.40;;;;;;;2.12;84.39;99785.34;434864;1308;141898;-61
2021/11/14 01:54:19;;;;;;;52.80;29.90;;;;;;;2.04;84.32;99793.13;432153;1312;142551;-62
2021/11/14 02:04:24;;;;;;;57.10;30.00;;;;;;;1.97;84.58;99794.52;431772;1312;141928;-61
2021/11/14 02:14:30;;;;;;;57.50;28.60;;;;;;;1.99;84.58;99799.98;430860;1312;141298;-61
2021/11/14 02:24:36;;;;;;;47.90;27.20;;;;;;;1.97;84.57;99805.07;429691;1311;143103;-62
2021/11/14 02:34:42;;;;;;;45.50;22.90;;;;;;;1.90;84.78;99807.29;434734;1312;141889;-60
2021/11/14 02:44:48;;;;;;;40.90;22.50;;;;;;;1.78;84.39;99812.42;420728;1312;141376;-60
2021/11/14 02:54:55;;;;;;;48.50;23.10;;;;;;;1.63;84.57;99817.98;423428;1311;141804;-61
2021/11/14 03:05:05;;;;;;;49.90;25.10;;;;;;;1.54;84.91;99830.77;422318;1312;143144;-60
2021/11/14 03:15:11;;;;;;;39.20;20.80;;;;;;;1.39;84.99;99841.10;433929;1312;142947;-61
2021/11/14 03:25:22;;;;;;;32.10;19.80;;;;;;;1.29;84.86;99857.19;433360;1312;143717;-61
2021/11/14 03:35:28;;;;;;;41.80;20.10;;;;;;;1.22;84.86;99863.19;430120;1312;142417;-61
2021/11/14 03:45:34;;;;;;;35.40;19.90;;;;;;;1.16;85.16;99872.63;421319;1309;141383;-60
2021/11/14 03:55:41;;;;;;;31.10;17.90;;;;;;;1.09;85.20;99867.43;418764;1312;141305;-60
2021/11/14 04:05:47;;;;;;;37.70;21.00;;;;;;;1.08;85.25;99875.73;429909;1312;145129;-60
2021/11/14 04:15:53;;;;;;;34.00;20.80;;;;;;;1.11;85.41;99879.98;434118;1313;142259;-60
2021/11/14 04:25:59;;;;;;;37.60;20.80;;;;;;;1.18;85.37;99880.88;432425;1311;142564;-60
2021/11/14 04:36:05;;;;;;;35.00;20.20;;;;;;;1.19;85.43;99888.10;428133;1312;141995;-61
2021/11/14 04:46:11;;;;;;;35.00;20.20;;;;;;;1.22;85.42;99891.30;434658;1311;142265;-61
2021/11/14 04:56:17;;;;;;;31.30;19.30;;;;;;;1.15;85.30;99893.35;434703;1312;142617;-61
2021/11/14 05:06:23;;;;;;;27.70;17.30;;;;;;;1.03;85.17;99910.66;432536;1313;142828;-60
2021/11/14 05:16:29;;;;;;;33.20;19.40;;;;;;;1.03;85.25;99926.16;431913;1312;197028;-60
2021/11/14 05:26:35;;;;;;;32.90;19.80;;;;;;;1.09;85.40;99937.95;433992;1313;142862;-59
2021/11/14 05:36:41;;;;;;;37.50;22.30;;;;;;;1.13;85.52;99940.80;434619;1311;141494;-61
2021/11/14 05:46:46;;;;;;;37.70;21.00;;;;;;;1.12;85.53;99951.34;434616;1311;142182;-60
2021/11/14 05:56:52;;;;;;;32.60;17.80;;;;;;;1.13;85.50;99959.42;432593;1311;142277;-61
2021/11/14 06:06:58;;;;;;;33.90;17.40;;;;;;;1.06;85.39;99975.24;428387;1312;142049;-61
2021/11/14 06:17:05;;;;;;;36.40;21.00;;;;;;;0.99;85.33;99987.79;433339;1311;141600;-61
2021/11/14 06:27:11;;;;;;;34.90;20.80;;;;;;;1.02;85.37;100003.60;432591;1311;141469;-61
2021/11/14 06:37:16;;;;;;;29.90;20.30;;;;;;;1.13;85.63;100018.23;431485;1309;141615;-61
2021/11/14 06:47:22;;;;;;;34.80;20.50;;;;;;;1.24;85.32;100026.30;433333;1311;141851;-61
2021/11/14 06:57:28;;;;;;;32.20;19.10;;;;;;;1.42;85.47;100033.90;431381;1311;143758;-60
2021/11/14 07:07:34;;;;;;;31.90;19.50;;;;;;;1.66;85.22;100046.91;430763;1310;143278;-62
2021/11/14 07:17:40;;;;;;;46.30;26.90;;;;;;;1.78;85.03;100058.58;432519;1311;143044;-62
2021/11/14 07:27:49;;;;;;;44.70;24.20;;;;;;;1.87;84.86;100072.91;434725;1311;142769;-60
2021/11/14 07:37:55;;;;;;;42.50;24.30;;;;;;;1.95;84.79;100080.69;434674;1311;143441;-61
2021/11/14 07:48:01;;;;;;;35.80;22.70;;;;;;;2.17;84.59;100086.98;433758;1309;145633;-61
2021/11/14 07:58:07;;;;;;;46.00;25.80;;;;;;;2.38;84.48;100087.20;433932;1311;141226;-61
2021/11/14 08:08:13;;;;;;;48.80;28.50;;;;;;;2.63;84.08;100101.17;427124;1312;141018;-62
2021/11/14 08:18:20;;;;;;;47.50;25.20;;;;;;;2.81;83.86;100113.20;433782;1311;192521;-61
2021/11/14 08:28:25;;;;;;;46.60;27.00;;;;;;;2.97;83.65;100128.58;431405;1312;142850;-60
2021/11/14 08:38:31;;;;;;;42.80;25.00;;;;;;;3.08;83.15;100143.00;434458;1311;142773;-60
2021/11/14 08:48:38;;;;;;;51.40;28.80;;;;;;;3.29;83.11;100150.44;433350;1312;144372;-60
2021/11/14 08:58:44;;;;;;;43.50;25.50;;;;;;;3.52;82.88;100166.31;434700;1309;142488;-62
2021/11/14 09:08:50;;;;;;;40.70;23.90;;;;;;;3.63;82.66;100173.65;430445;1309;142252;-60
2021/11/14 09:18:56;;;;;;;39.90;26.70;;;;;;;3.82;82.02;100175.08;434815;1312;141705;-62
2021/11/14 09:29:03;;;;;;;48.70;28.90;;;;;;;3.99;81.59;100183.48;427069;1312;141975;-62
2021/11/14 09:39:12;;;;;;;47.80;29.40;;;;;;;4.11;80.94;100188.52;434079;1312;142951;-61
2021/11/14 09:49:19;;;;;;;40.40;28.20;;;;;;;4.48;81.13;100189.54;434817;1312;142792;-61
2021/11/14 09:59:26;;;;;;;47.10;29.80;;;;;;;4.54;80.33;100193.73;432952;1312;143942;-60
2021/11/14 10:09:34;;;;;;;50.80;34.40;;;;;;;4.57;80.06;100193.45;419010;1312;142770;-61
2021/11/14 10:19:40;;;;;;;55.30;34.10;;;;;;;4.63;80.11;100199.36;434920;1309;142089;-61
2021/11/14 10:29:50;;;;;;;49.20;35.00;;;;;;;4.70;79.94;100212.67;434065;1311;199530;-61
2021/11/14 10:39:58;;;;;;;44.60;31.60;;;;;;;4.85;79.48;100214.30;434695;1312;142963;-61
2021/11/14 10:50:07;;;;;;;47.60;30.80;;;;;;;5.08;79.06;100210.48;433374;1312;143019;-62
2021/11/14 11:00:15;;;;;;;41.30;29.80;;;;;;;5.45;78.67;100207.56;432787;1312;143134;-60
2021/11/14 11:10:23;;;;;;;48.50;34.10;;;;;;;5.57;78.12;100207.69;434675;1314;142908;-61
2021/11/14 11:20:29;;;;;;;48.50;31.60;;;;;;;5.63;77.80;100205.07;434579;1308;142807;-61
2021/11/14 11:30:39;;;;;;;48.20;35.30;;;;;;;5.86;77.71;100206.40;434845;1311;143674;-60
2021/11/14 11:40:50;;;;;;;50.90;33.00;;;;;;;6.23;77.17;100211.56;432055;1312;142725;-61
2021/11/14 11:51:08;;;;;;;54.40;34.80;;;;;;;6.50;76.52;100215.27;431307;1310;163853;-60
2021/11/14 12:01:26;;;;;;;44.90;33.60;;;;;;;6.49;76.05;100217.05;421457;1310;142147;-61
2021/11/14 12:11:37;;;;;;;69.00;42.90;;;;;;;6.33;75.80;100220.05;428997;1310;141697;-61
2021/11/14 12:21:53;;;;;;;53.80;37.40;;;;;;;6.53;76.02;100229.95;430047;1312;143415;-62
2021/11/14 12:32:02;;;;;;;62.00;39.30;;;;;;;6.67;75.52;100239.71;418929;1313;141657;-60
2021/11/14 12:42:11;;;;;;;81.20;49.90;;;;;;;6.70;75.19;100248.31;426848;1314;141881;-62
2021/11/14 12:52:29;;;;;;;51.40;34.70;;;;;;;6.53;75.27;100254.30;430898;1314;142180;-62
2021/11/14 13:02:35;;;;;;;53.50;34.20;;;;;;;6.34;75.28;100263.67;430331;1313;159850;-61
2021/11/14 13:12:47;;;;;;;49.90;35.10;;;;;;;6.21;75.29;100277.15;433296;1311;142098;-61
2021/11/14 13:22:54;;;;;;;50.40;32.20;;;;;;;5.98;75.43;100290.95;433724;1314;141552;-61
2021/11/14 13:33:01;;;;;;;51.20;32.00;;;;;;;5.76;75.66;100295.84;427632;1314;142608;-62
2021/11/14 13:43:10;;;;;;;45.40;31.00;;;;;;;5.60;75.98;100296.00;434725;1312;141583;-60
2021/11/14 13:53:18;;;;;;;42.20;29.60;;;;;;;5.41;76.08;100304.60;434356;1310;143042;-60
2021/11/14 14:03:28;;;;;;;45.80;28.50;;;;;;;5.20;76.59;100314.77;432297;1313;142730;-61
2021/11/14 14:13:34;;;;;;;42.10;28.60;;;;;;;5.11;76.73;100320.61;434880;1310;142709;-61
2021/11/14 14:23:41;;;;;;;42.90;27.50;;;;;;;5.05;77.16;100334.14;433567;1313;142908;-62
2021/11/14 14:33:55;;;;;;;46.60;29.70;;;;;;;4.90;77.38;100339.42;433830;1313;142126;-61
2021/11/14 14:44:05;;;;;;;48.10;33.00;;;;;;;4.72;77.56;100348.59;434769;1313;141224;-61
2021/11/14 14:54:15;;;;;;;51.90;33.70;;;;;;;4.58;77.96;100360.08;432746;1308;142827;-63
2021/11/14 15:04:25;;;;;;;42.70;29.30;;;;;;;4.46;78.42;100364.86;425910;1314;141864;-61
2021/11/14 15:14:39;;;;;;;38.60;24.20;;;;;;;4.41;78.37;100371.27;432220;1313;143842;-61
2021/11/14 15:24:45;;;;;;;32.10;21.10;;;;;;;4.38;78.67;100390.06;434917;1312;142776;-61
2021/11/14 15:34:52;;;;;;;32.00;21.00;;;;;;;4.34;78.28;100406.96;433453;1313;142582;-61
2021/11/14 15:44:58;;;;;;;30.80;19.30;;;;;;;4.28;78.30;100418.04;427665;1316;141609;-61
2021/11/14 15:55:04;;;;;;;33.60;22.20;;;;;;;4.27;78.38;100427.26;433441;1311;142830;-62
2021/11/14 16:05:10;;;;;;;35.20;22.10;;;;;;;4.24;78.78;100440.83;434730;1314;141811;-61
2021/11/14 16:15:17;;;;;;;31.70;20.50;;;;;;;4.18;78.34;100447.41;433861;1312;144170;-61
2021/11/14 16:25:24;;;;;;;36.90;22.00;;;;;;;4.13;78.63;100449.75;434557;1313;239746;-61
2021/11/14 16:35:32;;;;;;;37.90;24.10;;;;;;;4.10;78.38;100462.84;434651;1313;142798;-62
2021/11/14 16:45:38;;;;;;;34.10;21.00;;;;;;;4.07;78.40;100471.05;431452;1315;142773;-61
2021/11/14 16:55:46;;;;;;;40.00;24.60;;;;;;;4.07;78.40;100480.06;425026;1311;141250;-61
2021/11/14 17:05:52;;;;;;;51.80;31.10;;;;;;;4.08;78.40;100488.70;433934;1312;142207;-62
2021/11/14 17:15:58;;;;;;;46.90;27.70;;;;;;;4.08;78.70;100502.02;434407;1313;143412;-61
2021/11/14 17:26:04;;;;;;;50.40;33.50;;;;;;;4.06;78.99;100512.30;434544;1313;142487;-62
2021/11/14 17:36:10;;;;;;;56.80;32.80;;;;;;;3.90;79.06;100522.18;431203;1313;142300;-61
2021/11/14 17:46:16;;;;;;;57.10;31.90;;;;;;;3.86;79.22;100529.20;434377;1312;141814;-62
2021/11/14 17:56:22;;;;;;;52.90;31.80;;;;;;;3.87;79.01;100534.20;421374;1309;142322;-61
2021/11/14 18:06:27;;;;;;;55.90;31.40;;;;;;;3.85;79.16;100539.43;430197;1312;141992;-61
2021/11/14 18:16:33;;;;;;;56.10;32.50;;;;;;;3.84;79.42;100547.77;433091;1311;142815;-61
2021/11/14 18:26:39;;;;;;;62.10;36.20;;;;;;;3.79;79.42;100553.93;432239;1314;142258;-62
2021/11/14 18:36:45;;;;;;;61.90;35.90;;;;;;;3.73;79.76;100564.27;434701;1313;141576;-61
2021/11/14 18:46:52;;;;;;;62.40;37.10;;;;;;;3.72;79.78;100564.30;432545;1312;142803;-60
2021/11/14 18:56:59;;;;;;;66.90;38.10;;;;;;;3.73;79.67;100555.61;432474;1312;142519;-61
2021/11/14 19:07:05;;;;;;;64.00;36.30;;;;;;;3.71;79.86;100563.09;434708;1312;141675;-61
2021/11/14 19:17:11;;;;;;;59.00;33.90;;;;;;;3.72;80.09;100583.00;433387;1312;142111;-63
2021/11/14 19:27:17;;;;;;;60.80;36.80;;;;;;;3.75;80.20;100598.02;418217;1312;141923;-61
2021/11/14 19:37:23;;;;;;;52.90;32.80;;;;;;;3.79;80.29;100613.50;434253;1306;142573;-62
2021/11/14 19:47:29;;;;;;;53.80;31.90;;;;;;;3.77;80.56;100618.39;434506;1312;142495;-61
2021/11/14 19:57:35;;;;;;;58.10;35.40;;;;;;;3.77;81.03;100632.60;433582;1312;142141;-62
2021/11/14 20:07:42;;;;;;;63.00;37.40;;;;;;;3.77;81.52;100639.52;433828;1310;142628;-62
2021/11/14 20:17:49;;;;;;;61.60;36.30;;;;;;;3.77;81.55;100650.10;433763;1313;142311;-61
2021/11/14 20:27:55;;;;;;;58.50;33.20;;;;;;;3.76;82.05;100656.70;434716;1309;141682;-61
2021/11/14 20:38:01;;;;;;;45.70;27.50;;;;;;;3.68;82.11;100657.17;434475;1309;143836;-61
2021/11/14 20:48:08;;;;;;;44.80;28.40;;;;;;;3.57;81.92;100660.86;432466;1311;142813;-65
2021/11/14 20:58:13;;;;;;;47.60;30.00;;;;;;;3.50;82.43;100671.70;433358;1311;141944;-60
2021/11/14 21:08:19;;;;;;;45.00;28.00;;;;;;;3.49;82.44;100684.54;433786;1312;143069;-62
2021/11/14 21:18:26;;;;;;;44.20;28.00;;;;;;;3.54;82.71;100688.78;431963;1311;145217;-62
2021/11/14 21:28:32;;;;;;;38.70;26.70;;;;;;;3.61;82.95;100687.27;433959;1310;141740;-62
2021/11/14 21:38:38;;;;;;;39.50;25.30;;;;;;;3.59;82.65;100698.20;432565;1313;142840;-60
2021/11/14 21:48:44;;;;;;;40.40;24.80;;;;;;;3.57;82.60;100696.68;435112;1309;141763;-61
2021/11/14 21:58:50;;;;;;;40.10;25.20;;;;;;;3.57;82.70;100699.45;406983;1309;20001981;-60
2021/11/14 22:08:56;;;;;;;41.20;27.20;;;;;;;3.59;82.85;100696.65;425339;1307;165634;-63
2021/11/14 22:19:02;;;;;;;38.80;25.60;;;;;;;3.58;83.03;100701.17;421514;1311;141246;-63
2021/11/14 22:29:08;;;;;;;36.30;24.20;;;;;;;3.52;82.76;100712.19;423130;1311;141879;-62
2021/11/14 22:39:15;;;;;;;35.10;23.20;;;;;;;3.45;82.79;100716.64;431042;1310;142459;-63
2021/11/14 22:49:23;;;;;;;39.90;26.20;;;;;;;3.44;82.75;100722.18;430605;1309;142319;-63
2021/11/14 22:59:31;;;;;;;31.00;20.30;;;;;;;3.42;82.89;100734.52;428514;1309;181566;-63
2021/11/14 23:09:37;;;;;;;30.70;21.80;;;;;;;3.24;82.68;100746.02;421012;1309;141782;-62
2021/11/14 23:19:43;;;;;;;37.00;24.40;;;;;;;3.09;82.57;100753.16;422702;1309;141934;-62
2021/11/14 23:29:49;;;;;;;31.20;21.60;;;;;;;2.96;82.73;100759.57;434409;1310;143340;-62
2021/11/14 23:40:19;;;;;;;33.10;22.70;;;;;;;2.85;82.99;100765.96;433403;1310;141910;-62
2021/11/14 23:50:25;;;;;;;34.40;23.30;;;;;;;2.86;83.04;100768.89;422510;1312;141867;-62
